Time;durP1;ratioP1;P1;durP2;ratioP2;P2;SDS_P1;SDS_P2;PMS_P1;PMS_P2;Temp;Humidity;BMP_temperature;BMP_pressure;BME280_temperature;BME280_humidity;BME280_pressure;Samples;Min_cycle;Max_cycle;Signal;HPM_P1;HPM_P2
2022/11/06 00:01:23;;;;;;;2.42;1.23;;;;;;;18.69;56.47;101187.28;5045902;28;20045;-41
2022/11/06 00:03:51;;;;;;;1.77;1.15;;;;;;;18.69;56.18;101189.94;5053957;28;20033;-43
2022/11/06 00:09:04;;;;;;;2.03;1.27;;;;;;;18.67;55.96;101180.41;5046266;28;21148;-42
2022/11/06 00:11:30;;;;;;;3.13;1.38;;;;;;;18.67;56.29;101185.66;5046533;28;20064;-42
2022/11/06 00:13:55;;;;;;;1.80;1.20;;;;;;;18.67;56.11;101181.25;5046334;28;20116;-44
2022/11/06 00:16:21;;;;;;;1.85;1.20;;;;;;;18.67;56.10;101169.88;5046312;28;20091;-42
2022/11/06 00:18:47;;;;;;;1.88;1.10;;;;;;;18.65;56.27;101175.22;5046067;28;20049;-42
2022/11/06 00:21:18;;;;;;;2.95;1.40;;;;;;;18.67;56.28;101173.38;5042967;28;20896;-42
2022/11/06 00:23:45;;;;;;;1.80;1.42;;;;;;;18.66;56.20;101182.19;5040160;28;20064;-42
2022/11/06 00:26:19;;;;;;;5.13;1.77;;;;;;;18.66;56.18;101189.22;5047352;28;20039;-43
2022/11/06 00:28:45;;;;;;;;;;;;;;;18.66;56.14;101183.94;5049169;28;20123;-42
2022/11/06 00:31:26;;;;;;;2.60;1.30;;;;;;;18.64;56.35;101181.41;5049514;28;19924;-42
2022/11/06 00:33:53;;;;;;;1.20;1.10;;;;;;;18.64;56.19;101185.81;5050219;28;20112;-42
2022/11/06 00:36:20;;;;;;;1.75;1.25;;;;;;;18.64;56.17;101188.44;5048487;28;20033;-42
2022/11/06 00:38:46;;;;;;;2.00;1.25;;;;;;;18.64;56.30;101180.56;5041684;28;20086;-42
2022/11/06 00:41:14;;;;;;;2.85;1.15;;;;;;;18.63;56.21;101192.00;5042096;28;20677;-43
2022/11/06 00:43:40;;;;;;;3.33;1.45;;;;;;;18.64;56.16;101191.06;5042856;28;20043;-47
2022/11/06 00:46:09;;;;;;;2.45;1.30;;;;;;;18.66;56.33;101199.75;5043178;28;20040;-42
2022/11/06 00:48:35;;;;;;;3.22;1.45;;;;;;;18.64;56.37;101202.47;5039614;28;20037;-43
2022/11/06 00:51:10;;;;;;;2.95;1.30;;;;;;;18.64;56.29;101201.59;5050922;28;20051;-43
2022/11/06 00:53:35;;;;;;;1.33;1.00;;;;;;;18.63;56.36;101199.88;5044117;28;20095;-43
2022/11/06 00:56:09;;;;;;;2.42;1.48;;;;;;;18.63;56.11;101190.22;5045984;28;20020;-43
2022/11/06 00:58:36;;;;;;;1.90;1.20;;;;;;;18.62;56.05;101193.78;5043295;28;20779;-43
2022/11/06 01:01:05;;;;;;;3.83;1.50;;;;;;;18.61;56.20;101197.34;5049706;28;20048;-45
2022/11/06 01:03:30;;;;;;;2.05;1.23;;;;;;;18.61;56.22;101201.75;5044617;28;20087;-43
2022/11/06 01:06:06;;;;;;;2.83;1.25;;;;;;;18.62;56.30;101198.19;5058608;28;20450;-43
2022/11/06 01:08:32;;;;;;;2.22;1.23;;;;;;;18.61;56.18;101199.13;5042629;28;20040;-42
2022/11/06 01:10:57;;;;;;;1.35;1.02;;;;;;;18.62;56.24;101200.84;5042736;28;20852;-49
2022/11/06 01:13:22;;;;;;;1.70;1.30;;;;;;;18.62;56.21;101206.09;5045541;28;20124;-49
2022/11/06 01:15:48;;;;;;;2.95;1.52;;;;;;;18.61;56.21;101191.22;5047239;28;20111;-50
2022/11/06 01:18:13;;;;;;;2.35;1.40;;;;;;;18.60;55.99;101194.81;5042148;28;20029;-53
2022/11/06 01:20:38;;;;;;;2.63;1.25;;;;;;;18.60;56.08;101189.53;5045737;28;20050;-48
2022/11/06 01:23:04;;;;;;;3.28;1.33;;;;;;;18.60;56.17;101187.72;5049119;28;20106;-49
2022/11/06 01:25:29;;;;;;;2.40;1.60;;;;;;;18.60;56.08;101193.00;5049900;28;20564;-50
2022/11/06 01:27:54;;;;;;;1.55;1.10;;;;;;;18.59;56.25;101193.09;5044508;28;20051;-49
2022/11/06 01:30:20;;;;;;;1.77;1.33;;;;;;;18.60;56.01;101200.06;5043654;28;20037;-48
2022/11/06 01:32:45;;;;;;;2.47;1.42;;;;;;;18.60;56.17;101193.00;5046076;28;20438;-48
2022/11/06 01:35:10;;;;;;;2.17;1.42;;;;;;;18.61;56.05;101183.31;5045225;28;20036;-50
2022/11/06 01:37:36;;;;;;;2.83;1.30;;;;;;;18.59;56.33;101186.03;5048505;28;20101;-48
2022/11/06 01:40:02;;;;;;;3.00;1.33;;;;;;;18.59;56.06;101186.03;5043651;28;20397;-49
2022/11/06 01:42:27;;;;;;;2.05;1.55;;;;;;;18.59;56.09;101185.19;5048920;28;20049;-49
2022/11/06 01:45:20;;;;;;;2.00;1.27;;;;;;;18.57;56.06;101179.97;5044877;28;20392;-48
2022/11/06 01:47:45;;;;;;;2.85;1.30;;;;;;;18.59;56.01;101177.28;5044451;28;20032;-51
2022/11/06 01:50:13;;;;;;;2.08;1.20;;;;;;;18.57;55.85;101169.47;5042649;28;20028;-51
2022/11/06 01:52:39;;;;;;;1.92;1.05;;;;;;;18.57;56.01;101166.81;5045686;28;20735;-48
2022/11/06 01:55:16;;;;;;;3.53;1.40;;;;;;;18.58;56.05;101163.28;5045691;28;20043;-49
2022/11/06 01:57:42;;;;;;;2.22;1.35;;;;;;;18.58;56.13;101154.53;5042563;28;20044;-50
2022/11/06 02:00:08;;;;;;;3.75;1.40;;;;;;;18.57;56.27;101150.22;5046608;28;20036;-49
2022/11/06 02:02:35;;;;;;;2.00;1.40;;;;;;;18.57;56.22;101152.84;5041518;28;20138;-50
2022/11/06 02:05:01;;;;;;;1.80;1.20;;;;;;;18.57;56.22;101145.78;5045156;28;20466;-47
2022/11/06 02:07:26;;;;;;;1.70;1.20;;;;;;;18.57;56.22;101142.31;5043326;28;20052;-50
2022/11/06 02:09:51;;;;;;;1.45;1.13;;;;;;;18.56;56.08;101137.97;5042798;28;20106;-49
2022/11/06 02:12:24;;;;;;;1.17;0.95;;;;;;;18.56;55.90;101140.59;5044476;28;20033;-51
2022/11/06 02:15:05;;;;;;;2.03;1.35;;;;;;;18.57;55.98;101144.94;5043511;28;20080;-49
2022/11/06 02:17:54;;;;;;;1.25;1.02;;;;;;;18.56;56.11;101149.34;5045249;28;20147;-51
2022/11/06 02:20:32;;;;;;;2.45;1.30;;;;;;;18.55;55.91;101147.63;5044916;28;20790;-48
2022/11/06 02:23:06;;;;;;;1.30;1.10;;;;;;;18.55;55.95;101141.53;5044742;28;20733;-48
2022/11/06 02:26:07;;;;;;;1.60;1.30;;;;;;;18.54;55.95;101151.19;5043541;28;20094;-48
2022/11/06 02:28:49;;;;;;;2.67;1.30;;;;;;;18.55;56.03;101144.16;5033587;28;20041;-48
2022/11/06 02:31:21;;;;;;;1.73;1.20;;;;;;;18.55;55.89;101137.13;5045897;28;20041;-48
2022/11/06 02:33:51;;;;;;;1.88;1.30;;;;;;;18.55;56.15;101136.25;5050107;28;20076;-49
2022/11/06 02:36:24;;;;;;;1.63;1.20;;;;;;;18.54;55.97;101137.22;5043558;28;20760;-50
2022/11/06 02:38:56;;;;;;;1.65;1.20;;;;;;;18.54;56.00;101138.03;5042356;28;20147;-48
2022/11/06 02:41:28;;;;;;;1.85;1.17;;;;;;;18.54;55.95;101135.41;5045479;28;20043;-51
2022/11/06 02:43:55;;;;;;;1.98;1.38;;;;;;;18.53;55.78;101133.72;5043440;28;20799;-48
2022/11/06 02:46:38;;;;;;;2.20;1.48;;;;;;;18.53;55.99;101132.84;5045369;28;20033;-50
2022/11/06 02:49:37;;;;;;;2.20;1.38;;;;;;;18.53;55.96;101140.75;5046396;28;20044;-48
2022/11/06 02:52:10;;;;;;;2.75;1.48;;;;;;;18.53;55.82;101133.72;5031610;28;20072;-49
2022/11/06 02:54:39;;;;;;;2.33;1.17;;;;;;;18.51;55.96;101124.19;5045142;28;20090;-49
2022/11/06 02:57:09;;;;;;;2.53;1.52;;;;;;;18.53;56.06;101117.06;5044400;28;20090;-49
2022/11/06 03:00:00;;;;;;;2.90;1.20;;;;;;;18.52;55.70;101113.59;5045264;28;20047;-49
2022/11/06 03:02:32;;;;;;;1.55;1.10;;;;;;;18.51;55.93;101114.50;5044982;28;20195;-51
2022/11/06 03:05:11;;;;;;;2.05;1.35;;;;;;;18.52;55.85;101121.47;5048344;28;20672;-48
2022/11/06 03:07:49;;;;;;;1.42;1.15;;;;;;;18.52;55.72;101121.47;5049078;28;20040;-48
2022/11/06 03:10:15;;;;;;;2.72;1.30;;;;;;;18.51;55.90;101124.19;5046345;28;20045;-50
2022/11/06 03:12:54;;;;;;;2.72;1.83;;;;;;;18.51;56.08;101124.19;5049178;28;20065;-51
2022/11/06 03:15:20;;;;;;;1.77;1.02;;;;;;;18.50;55.90;101117.22;5043417;28;20033;-49
2022/11/06 03:18:14;;;;;;;2.22;1.23;;;;;;;18.51;55.97;101118.94;5051164;28;20037;-49
2022/11/06 03:20:48;;;;;;;1.20;1.10;;;;;;;18.51;55.86;101119.75;5047295;28;20155;-49
2022/11/06 03:23:43;;;;;;;1.88;1.33;;;;;;;18.51;55.68;101116.31;5055197;28;20032;-49
2022/11/06 03:26:20;;;;;;;2.72;1.55;;;;;;;18.50;55.88;101109.31;5047038;28;20040;-50
2022/11/06 03:28:57;;;;;;;1.45;1.35;;;;;;;18.51;55.82;101090.00;5050581;28;20076;-49
2022/11/06 03:31:31;;;;;;;2.90;1.20;;;;;;;18.50;55.90;101097.03;5050894;28;20072;-49
2022/11/06 03:34:09;;;;;;;1.98;1.17;;;;;;;18.48;55.86;101096.22;5054974;28;20879;-48
2022/11/06 03:36:48;;;;;;;2.22;1.40;;;;;;;18.50;55.72;101099.66;5053343;28;20749;-49
2022/11/06 03:39:20;;;;;;;2.20;1.27;;;;;;;18.50;55.72;101118.06;5054134;28;20848;-51
2022/11/06 03:41:56;;;;;;;2.85;1.10;;;;;;;18.51;55.91;101124.19;5054375;28;20036;-51
2022/11/06 03:44:27;;;;;;;2.38;1.30;;;;;;;18.49;55.95;101137.41;5052319;28;20028;-50
2022/11/06 03:46:57;;;;;;;2.67;1.25;;;;;;;18.49;55.84;101128.66;5050511;28;20468;-49
2022/11/06 03:49:29;;;;;;;2.08;1.35;;;;;;;18.49;55.95;101123.41;5050966;28;20139;-50
2022/11/06 03:52:03;;;;;;;2.20;1.10;;;;;;;18.49;56.00;101141.81;5047976;28;20037;-48
2022/11/06 03:54:34;;;;;;;1.27;1.10;;;;;;;18.48;55.89;101148.03;5054302;28;20033;-48
2022/11/06 03:57:12;;;;;;;1.88;1.17;;;;;;;18.48;55.81;101145.38;5048339;28;20066;-49
2022/11/06 03:59:43;;;;;;;2.03;1.15;;;;;;;18.49;55.96;101132.16;5056461;28;20088;-48
2022/11/06 04:02:11;;;;;;;1.60;1.13;;;;;;;18.48;55.64;101121.72;5049742;28;20028;-49
2022/11/06 04:05:14;;;;;;;2.20;1.20;;;;;;;18.47;55.78;101128.75;5045468;28;20053;-48
2022/11/06 04:13:56;;;;;;;1.88;1.20;;;;;;;18.48;55.88;101129.59;5045800;28;20032;-49
2022/11/06 04:16:07;;;;;;;3.63;1.20;;;;;;;18.48;55.80;101126.97;5046863;28;20048;-50
2022/11/06 04:18:32;;;;;;;1.38;1.20;;;;;;;18.44;55.85;101128.88;5047737;28;20048;-49
2022/11/06 04:21:24;;;;;;;1.67;1.10;;;;;;;18.45;55.76;101119.19;5043248;28;20055;-48
2022/11/06 04:27:22;;;;;;;2.38;1.17;;;;;;;18.45;55.67;101124.47;5047592;28;20043;-48
2022/11/06 04:29:59;;;;;;;2.05;1.00;;;;;;;18.45;56.06;101132.34;5052788;28;20037;-51
2022/11/06 04:32:53;;;;;;;1.95;1.00;;;;;;;18.46;55.65;101126.19;5049171;28;20094;-49
2022/11/06 04:35:42;;;;;;;2.33;1.10;;;;;;;18.45;55.49;101116.56;5051520;28;20410;-49
2022/11/06 04:38:16;;;;;;;1.75;1.35;;;;;;;18.44;55.79;101114.84;5046119;28;20033;-49
2022/11/06 04:41:01;;;;;;;2.53;1.50;;;;;;;18.43;55.71;101115.75;5043334;28;20028;-49
2022/11/06 04:43:48;;;;;;;1.95;1.27;;;;;;;18.43;55.84;101114.00;5044780;28;20135;-50
2022/11/06 04:46:26;;;;;;;1.27;0.93;;;;;;;18.42;55.72;101101.75;5043418;28;20055;-48
2022/11/06 04:48:53;;;;;;;2.20;1.48;;;;;;;18.44;55.77;101093.81;5045415;28;20574;-49
2022/11/06 04:51:22;;;;;;;1.75;1.10;;;;;;;18.42;55.63;101088.59;5047146;28;20056;-51
2022/11/06 04:53:51;;;;;;;1.73;1.05;;;;;;;18.43;55.68;101065.78;5050827;28;20505;-50
2022/11/06 04:56:24;;;;;;;2.03;1.13;;;;;;;18.42;55.54;101072.00;5047801;28;20032;-49
2022/11/06 04:58:49;;;;;;;2.88;1.10;;;;;;;18.42;55.83;101074.63;5048689;28;20040;-50
2022/11/06 05:01:15;;;;;;;1.70;1.20;;;;;;;18.44;55.54;101067.50;5043055;28;20033;-50
2022/11/06 05:03:40;;;;;;;1.33;0.98;;;;;;;18.41;55.40;101055.34;5046724;28;20571;-50
2022/11/06 05:06:06;;;;;;;1.55;1.00;;;;;;;18.43;55.60;101052.63;5047069;28;20777;-49
2022/11/06 05:08:31;;;;;;;2.35;1.27;;;;;;;18.42;55.49;101051.78;5045696;28;20036;-52
2022/11/06 05:10:56;;;;;;;1.48;1.08;;;;;;;18.42;55.62;101043.06;5048376;28;20025;-50
2022/11/06 05:13:22;;;;;;;1.70;1.00;;;;;;;18.42;55.70;101040.44;5046814;28;20068;-49
2022/11/06 05:15:47;;;;;;;1.25;1.10;;;;;;;18.42;55.57;101043.06;5054408;28;20043;-51
2022/11/06 05:18:12;;;;;;;2.78;1.10;;;;;;;18.41;55.61;101039.56;5046519;28;20123;-49
2022/11/06 05:20:38;;;;;;;2.50;1.20;;;;;;;18.42;55.70;101037.81;5047568;28;20055;-48
2022/11/06 05:23:03;;;;;;;2.35;1.05;;;;;;;18.42;55.59;101035.16;5046882;28;20039;-48
2022/11/06 05:25:34;;;;;;;1.98;1.20;;;;;;;18.40;55.64;101029.09;5038613;28;20128;-49
2022/11/06 05:28:01;;;;;;;1.52;1.10;;;;;;;18.41;55.56;101025.56;5042323;28;20028;-51
2022/11/06 05:30:26;;;;;;;2.20;1.30;;;;;;;18.40;55.34;101022.06;5044206;28;20040;-49
2022/11/06 05:32:52;;;;;;;1.50;1.05;;;;;;;18.40;55.66;101013.31;5061479;28;20568;-49
2022/11/06 05:35:19;;;;;;;0.85;0.70;;;;;;;18.40;55.73;101008.06;5046973;28;20020;-50
2022/11/06 05:37:45;;;;;;;3.05;1.10;;;;;;;18.38;55.67;101005.53;5049947;28;20040;-49
2022/11/06 05:40:11;;;;;;;1.40;0.80;;;;;;;18.39;55.59;101006.38;5043583;28;20766;-48
2022/11/06 05:42:38;;;;;;;3.38;1.17;;;;;;;18.40;55.50;101008.94;5041243;28;20045;-50
2022/11/06 05:45:04;;;;;;;4.00;1.30;;;;;;;18.39;55.42;101001.94;5040377;28;20041;-49
2022/11/06 05:47:29;;;;;;;1.58;1.10;;;;;;;18.41;55.73;101001.88;5045341;28;20538;-49
2022/11/06 05:49:55;;;;;;;3.67;1.20;;;;;;;18.40;55.46;100997.53;5047540;28;20050;-49
2022/11/06 05:52:20;;;;;;;1.45;1.13;;;;;;;18.43;55.64;100984.25;5049788;28;20123;-49
2022/11/06 05:54:45;;;;;;;1.65;0.90;;;;;;;18.43;55.91;100974.56;5055722;28;20167;-49
2022/11/06 05:57:11;;;;;;;1.98;1.15;;;;;;;18.44;55.40;100967.53;5042754;28;20774;-50
2022/11/06 05:59:36;;;;;;;0.82;0.70;;;;;;;18.45;55.28;100964.00;5050239;28;21147;-48
2022/11/06 06:02:02;;;;;;;1.50;1.05;;;;;;;18.46;55.19;100973.59;5043595;28;20518;-48
2022/11/06 06:04:27;;;;;;;2.75;1.20;;;;;;;18.48;55.13;100977.03;5048203;28;20036;-52
2022/11/06 06:06:52;;;;;;;1.60;1.13;;;;;;;18.48;55.10;100969.97;5044356;28;20156;-48
2022/11/06 06:09:18;;;;;;;2.30;1.00;;;;;;;18.47;55.08;100965.66;5045420;28;20110;-49
2022/11/06 06:11:43;;;;;;;1.50;0.90;;;;;;;18.48;55.15;100958.63;5046162;28;20115;-49
2022/11/06 06:14:08;;;;;;;2.55;1.10;;;;;;;18.49;55.15;100953.25;5048379;28;20112;-50
2022/11/06 06:16:34;;;;;;;2.55;1.10;;;;;;;18.49;55.05;100953.25;5046234;28;20140;-51
2022/11/06 06:18:59;;;;;;;1.25;1.08;;;;;;;18.50;55.07;100948.84;5047515;28;20033;-49
2022/11/06 06:21:24;;;;;;;1.58;1.00;;;;;;;18.52;55.10;100946.97;5046345;28;20032;-52
2022/11/06 06:23:50;;;;;;;3.05;1.10;;;;;;;18.55;54.93;100950.31;5047640;28;20036;-52
2022/11/06 06:26:16;;;;;;;1.55;0.98;;;;;;;18.55;55.13;100947.69;5054693;28;20495;-49
2022/11/06 06:28:41;;;;;;;1.85;1.00;;;;;;;18.56;55.05;100938.00;5045363;28;20045;-51
2022/11/06 06:31:07;;;;;;;1.63;1.20;;;;;;;18.61;54.95;100939.47;5044783;28;20072;-49
2022/11/06 06:33:32;;;;;;;1.42;0.90;;;;;;;18.67;54.76;100933.03;5047507;28;20061;-49
2022/11/06 06:36:01;;;;;;;1.88;1.15;;;;;;;18.74;54.85;100928.31;5047697;28;20036;-49
2022/11/06 06:38:26;;;;;;;1.08;0.73;;;;;;;18.79;54.66;100940.31;5062704;28;20162;-50
2022/11/06 06:40:53;;;;;;;1.42;0.98;;;;;;;18.82;54.64;100940.16;5049190;28;20440;-50
2022/11/06 06:43:18;;;;;;;1.30;0.80;;;;;;;18.84;54.77;100948.81;5047095;28;20044;-49
2022/11/06 06:45:43;;;;;;;2.67;0.90;;;;;;;18.85;54.55;100955.78;5052599;28;20405;-49
2022/11/06 06:48:09;;;;;;;1.92;1.08;;;;;;;18.86;54.69;100951.38;5049743;28;20451;-48
2022/11/06 06:50:34;;;;;;;1.73;0.90;;;;;;;18.85;54.44;100952.28;5045689;28;20136;-49
2022/11/06 06:53:00;;;;;;;1.42;1.00;;;;;;;18.87;54.44;100953.91;5048061;28;20143;-51
2022/11/06 06:55:25;;;;;;;1.83;0.88;;;;;;;18.85;54.43;100957.56;5048855;28;20712;-49
2022/11/06 06:58:00;;;;;;;2.55;0.93;;;;;;;18.86;54.41;100959.28;5063426;28;20045;-49
2022/11/06 07:00:27;;;;;;;1.00;0.80;;;;;;;18.85;54.56;100961.03;5045893;28;20511;-49
2022/11/06 07:02:52;;;;;;;2.20;1.30;;;;;;;18.86;54.41;100964.53;5046869;28;20033;-49
2022/11/06 07:05:18;;;;;;;2.85;1.00;;;;;;;18.85;54.43;100973.34;5055361;28;20032;-52
2022/11/06 07:07:43;;;;;;;1.30;0.82;;;;;;;18.85;54.43;100968.09;5054926;28;20101;-50
2022/11/06 07:10:09;;;;;;;1.42;1.05;;;;;;;18.86;54.48;100975.06;5048919;28;20044;-50
2022/11/06 07:12:34;;;;;;;1.23;0.68;;;;;;;18.88;54.14;100981.94;5053356;28;20037;-49
2022/11/06 07:15:00;;;;;;;1.70;0.80;;;;;;;18.88;54.41;100981.09;5050056;28;20036;-50
2022/11/06 07:17:26;;;;;;;2.53;0.95;;;;;;;18.87;54.45;100976.78;5049411;28;20132;-49
2022/11/06 07:19:52;;;;;;;1.40;0.90;;;;;;;18.86;54.35;100975.91;5051451;28;20995;-48
2022/11/06 07:22:17;;;;;;;2.72;1.20;;;;;;;18.87;54.48;100968.88;5053559;28;20045;-48
2022/11/06 07:24:42;;;;;;;2.80;1.15;;;;;;;18.87;54.45;100964.44;5050271;28;20128;-48
2022/11/06 07:27:08;;;;;;;1.55;0.90;;;;;;;18.87;54.39;100961.81;5047548;28;20569;-51
2022/11/06 07:29:33;;;;;;;1.60;0.82;;;;;;;18.85;54.00;100958.41;5042704;28;20032;-49
2022/11/06 07:32:00;;;;;;;2.38;0.80;;;;;;;18.87;53.70;100951.28;5053639;28;20125;-50
2022/11/06 07:34:25;;;;;;;2.08;0.88;;;;;;;18.90;53.79;100948.47;5050837;28;20116;-48
2022/11/06 07:36:50;;;;;;;2.13;0.82;;;;;;;18.92;53.68;100953.69;5052656;28;20055;-53
2022/11/06 07:39:16;;;;;;;3.75;1.20;;;;;;;18.92;53.93;100957.16;5049715;28;20519;-48
2022/11/06 07:41:41;;;;;;;2.47;0.90;;;;;;;18.91;53.86;100958.09;5049941;28;20077;-49
2022/11/06 07:44:06;;;;;;;3.17;1.10;;;;;;;18.90;54.04;100964.28;5053923;28;20109;-48
2022/11/06 07:46:32;;;;;;;2.70;1.05;;;;;;;18.94;53.98;100952.66;5048398;28;20091;-48
2022/11/06 07:48:57;;;;;;;2.92;1.10;;;;;;;18.92;53.83;100954.53;5053775;28;20708;-48
2022/11/06 07:51:23;;;;;;;6.15;0.90;;;;;;;18.95;53.86;100954.38;5053862;28;20154;-48
2022/11/06 07:53:48;;;;;;;2.35;0.95;;;;;;;18.96;54.01;100958.69;5054391;28;20040;-50
2022/11/06 07:56:14;;;;;;;2.25;0.77;;;;;;;18.96;54.20;100957.84;5047606;28;20702;-48
2022/11/06 07:58:39;;;;;;;1.33;0.73;;;;;;;18.97;54.11;100959.56;5051356;28;20036;-49
2022/11/06 08:01:05;;;;;;;1.52;0.90;;;;;;;18.97;54.20;100964.81;5049217;28;20078;-49
2022/11/06 08:03:30;;;;;;;3.33;1.00;;;;;;;18.96;54.06;100963.09;5051068;28;21230;-49
2022/11/06 08:06:03;;;;;;;1.15;0.75;;;;;;;18.99;54.10;100960.31;5052527;28;20102;-47
2022/11/06 08:08:30;;;;;;;1.15;0.73;;;;;;;19.00;54.11;100959.38;5053148;28;20066;-46
2022/11/06 08:11:00;;;;;;;1.88;0.90;;;;;;;19.01;54.08;100950.56;5049640;28;20540;-51
2022/11/06 08:13:25;;;;;;;2.05;0.80;;;;;;;19.00;54.21;100941.81;5049623;28;20185;-48
2022/11/06 08:15:53;;;;;;;1.27;0.73;;;;;;;18.99;54.09;100939.25;5051564;28;20083;-48
2022/11/06 08:18:18;;;;;;;2.67;0.93;;;;;;;19.00;54.14;100925.16;5049918;28;20659;-51
2022/11/06 08:20:44;;;;;;;1.42;0.80;;;;;;;19.01;54.15;100917.19;5051173;28;20032;-49
2022/11/06 08:23:11;;;;;;;1.33;0.90;;;;;;;19.03;54.13;100928.50;5064438;28;20055;-47
2022/11/06 08:25:38;;;;;;;2.85;1.05;;;;;;;19.04;54.13;100927.56;5047521;28;20065;-48
2022/11/06 08:28:03;;;;;;;2.40;1.10;;;;;;;19.04;54.06;100918.81;5045415;28;20047;-49
2022/11/06 08:30:29;;;;;;;2.33;1.08;;;;;;;19.02;53.71;100916.25;5051372;28;20041;-50
2022/11/06 08:33:00;;;;;;;1.60;0.90;;;;;;;19.02;53.96;100912.75;5046624;28;20113;-49
2022/11/06 08:35:25;;;;;;;1.73;0.80;;;;;;;19.05;53.52;100910.81;5049638;28;20634;-50
2022/11/06 08:37:51;;;;;;;4.63;1.27;;;;;;;19.06;53.54;100909.03;5053357;28;20036;-49
2022/11/06 08:40:17;;;;;;;3.50;0.93;;;;;;;19.09;53.70;100908.88;5051465;28;20505;-48
2022/11/06 08:42:42;;;;;;;5.38;1.20;;;;;;;19.16;53.69;100910.25;5045553;28;20716;-51
2022/11/06 08:45:08;;;;;;;3.60;1.00;;;;;;;19.24;53.32;100903.63;5043645;28;20041;-48
2022/11/06 08:47:33;;;;;;;4.20;1.02;;;;;;;19.15;53.50;100905.91;5045716;28;20029;-45
2022/11/06 08:49:59;;;;;;;6.45;1.10;;;;;;;19.17;53.32;100912.78;5045729;28;20624;-47
2022/11/06 08:52:24;;;;;;;6.55;1.27;;;;;;;19.14;52.97;100906.84;5049963;28;20482;-47
2022/11/06 08:54:50;;;;;;;4.97;1.30;;;;;;;19.12;53.18;100899.03;5052817;28;20041;-47
2022/11/06 08:57:15;;;;;;;3.88;1.10;;;;;;;19.13;53.05;100898.06;5056282;28;20037;-47
2022/11/06 08:59:40;;;;;;;2.50;0.80;;;;;;;19.15;53.04;100885.69;5047468;28;20101;-47
2022/11/06 09:02:12;;;;;;;5.70;1.20;;;;;;;19.14;53.09;100888.41;5047277;28;20040;-49
2022/11/06 09:04:38;;;;;;;2.20;1.00;;;;;;;19.16;53.03;100886.56;5047688;28;20091;-46
2022/11/06 09:07:03;;;;;;;3.88;0.90;;;;;;;19.15;53.09;100896.22;5048002;28;20044;-47
2022/11/06 09:09:32;;;;;;;6.22;1.30;;;;;;;19.15;53.14;100888.34;5049954;28;20047;-48
2022/11/06 09:12:02;;;;;;;4.15;1.05;;;;;;;19.17;52.86;100890.88;5047802;28;20121;-46
2022/11/06 09:14:28;;;;;;;2.88;1.02;;;;;;;19.16;52.90;100884.75;5049671;28;20338;-46
2022/11/06 09:16:53;;;;;;;2.25;0.70;;;;;;;19.17;52.88;100875.06;5053057;28;20545;-46
2022/11/06 09:19:22;;;;;;;4.63;1.15;;;;;;;19.17;52.95;100875.06;5048918;28;20063;-46
2022/11/06 09:21:47;;;;;;;2.53;0.70;;;;;;;19.19;52.78;100865.31;5047672;28;20098;-46
2022/11/06 09:24:18;;;;;;;3.15;1.20;;;;;;;19.17;52.98;100860.13;5047454;28;20970;-47
2022/11/06 09:26:44;;;;;;;3.13;0.90;;;;;;;19.18;52.94;100860.97;5047900;28;20039;-49
2022/11/06 09:29:09;;;;;;;3.90;0.80;;;;;;;19.17;52.64;100856.63;5046360;28;20033;-47
2022/11/06 09:31:34;;;;;;;3.05;0.90;;;;;;;19.19;52.67;100852.16;5049719;28;20032;-46
2022/11/06 09:34:00;;;;;;;2.63;0.80;;;;;;;19.16;52.75;100847.06;5047122;28;20048;-47
2022/11/06 09:36:28;;;;;;;4.50;1.00;;;;;;;19.15;52.97;100843.56;5050726;28;20701;-48
2022/11/06 09:38:53;;;;;;;1.02;0.80;;;;;;;19.16;52.80;100841.78;5051635;28;20125;-46
2022/11/06 09:41:25;;;;;;;3.33;0.95;;;;;;;19.15;52.70;100842.72;5046055;28;20116;-46
2022/11/06 09:44:03;;;;;;;4.07;0.95;;;;;;;19.16;52.62;100842.59;5044762;28;20041;-48
2022/11/06 09:46:32;;;;;;;2.95;0.95;;;;;;;19.18;52.78;100846.03;5047275;28;20044;-46
2022/11/06 09:49:21;;;;;;;2.90;0.70;;;;;;;19.18;52.49;100822.31;5047075;28;20463;-47
2022/11/06 09:52:07;;;;;;;2.58;0.93;;;;;;;19.18;52.84;100824.97;5048074;28;20848;-47
2022/11/06 09:54:42;;;;;;;5.28;0.90;;;;;;;19.18;52.32;100822.31;5048429;28;20127;-46
2022/11/06 09:57:34;;;;;;;4.93;1.00;;;;;;;19.19;52.80;100824.00;5052258;28;20032;-47
2022/11/06 10:00:01;;;;;;;3.25;1.13;;;;;;;19.19;52.73;100826.63;5047633;28;20044;-47
2022/11/06 10:02:30;;;;;;;3.40;0.80;;;;;;;19.21;52.58;100821.31;5044217;28;20041;-47
2022/11/06 10:05:29;;;;;;;2.35;1.00;;;;;;;19.23;52.63;100824.69;5048290;28;20056;-46
2022/11/06 10:08:04;;;;;;;1.15;1.00;;;;;;;19.23;52.70;100819.41;5045993;28;20086;-47
2022/11/06 10:10:39;;;;;;;2.10;0.80;;;;;;;19.22;52.63;100821.19;5044699;28;20068;-49
2022/11/06 10:13:42;;;;;;;2.08;0.98;;;;;;;19.19;52.78;100818.75;5047478;28;20039;-47
2022/11/06 10:16:19;;;;;;;2.17;0.73;;;;;;;19.20;52.70;100817.81;5044843;28;20049;-47
2022/11/06 10:18:48;;;;;;;1.45;1.05;;;;;;;19.21;52.75;100810.75;5046957;28;20036;-47
2022/11/06 10:21:30;;;;;;;3.15;1.17;;;;;;;19.22;52.78;100804.56;5050114;28;20040;-47
2022/11/06 10:23:58;;;;;;;1.80;0.95;;;;;;;19.20;52.83;100799.38;5046321;28;20036;-46
2022/11/06 10:26:29;;;;;;;3.67;1.05;;;;;;;19.21;52.79;100795.81;5045413;28;20190;-47
2022/11/06 10:29:29;;;;;;;2.53;0.93;;;;;;;19.20;52.74;100803.78;5046721;28;20142;-49
2022/11/06 10:32:22;;;;;;;3.50;1.10;;;;;;;19.18;52.99;100806.53;5061484;28;20228;-48
2022/11/06 10:35:19;;;;;;;1.90;1.08;;;;;;;19.19;52.99;100804.75;5046051;28;20303;-47
2022/11/06 10:37:59;;;;;;;2.88;0.93;;;;;;;19.19;52.69;100805.56;5019539;28;20071;-47
2022/11/06 10:40:28;;;;;;;1.50;0.88;;;;;;;19.19;53.06;100796.84;5045573;28;20072;-48
2022/11/06 10:43:16;;;;;;;2.10;1.00;;;;;;;19.19;52.86;100794.22;5051412;28;20528;-48
2022/11/06 10:45:47;;;;;;;1.77;1.00;;;;;;;19.17;53.32;100783.75;5051018;28;20049;-46
2022/11/06 10:48:21;;;;;;;1.95;0.80;;;;;;;19.17;53.06;100781.13;5046260;28;20422;-46
2022/11/06 10:51:14;;;;;;;3.20;0.90;;;;;;;19.18;52.71;100767.03;5049528;28;20041;-45
2022/11/06 10:53:46;;;;;;;1.77;0.90;;;;;;;19.16;53.07;100765.41;5049596;28;20166;-46
2022/11/06 10:56:52;;;;;;;2.35;0.77;;;;;;;19.17;53.08;100752.16;5051888;28;20039;-48
2022/11/06 10:59:18;;;;;;;0.77;0.73;;;;;;;19.17;53.13;100743.41;4998804;28;20037;-50
2022/11/06 11:01:44;;;;;;;2.00;1.05;;;;;;;19.16;53.01;100732.00;5039323;28;20045;-48
2022/11/06 11:04:09;;;;;;;2.08;1.20;;;;;;;19.17;52.96;100727.59;5049792;28;20044;-47
2022/11/06 11:06:38;;;;;;;2.97;0.88;;;;;;;19.16;53.22;100731.19;5051370;28;20040;-47
2022/11/06 11:09:28;;;;;;;1.70;0.88;;;;;;;19.15;52.88;100718.94;5050197;28;20154;-46
2022/11/06 11:11:54;;;;;;;1.70;0.80;;;;;;;19.15;53.21;100716.31;5049333;28;20082;-47
2022/11/06 11:14:28;;;;;;;0.90;0.68;;;;;;;19.14;53.01;100715.47;5052607;28;20608;-47
2022/11/06 11:16:54;;;;;;;;;;;;;;;19.16;53.12;100716.22;5049426;28;20052;-50
2022/11/06 11:19:24;;;;;;;2.08;1.00;;;;;;;19.13;52.92;100711.13;5051201;28;19927;-48
2022/11/06 11:21:58;;;;;;;3.60;1.40;;;;;;;19.14;53.01;100712.81;5050895;28;20198;-48
2022/11/06 11:24:24;;;;;;;1.60;1.00;;;;;;;19.14;52.95;100690.91;5048860;28;20681;-46
2022/11/06 11:26:53;;;;;;;1.95;0.93;;;;;;;19.13;52.90;100687.41;5045072;28;20033;-48
2022/11/06 11:29:23;;;;;;;2.63;0.93;;;;;;;19.13;52.71;100676.88;5050139;28;20037;-46
2022/11/06 11:31:53;;;;;;;1.60;1.00;;;;;;;19.14;52.67;100681.22;5051373;28;20564;-47
2022/11/06 11:34:23;;;;;;;1.58;1.00;;;;;;;19.15;52.93;100674.19;5049516;28;20036;-47
2022/11/06 11:37:03;;;;;;;2.08;0.80;;;;;;;19.15;52.89;100668.91;5052623;28;20048;-49
2022/11/06 11:39:36;;;;;;;2.35;0.90;;;;;;;19.14;52.87;100665.44;5042757;28;20037;-48
2022/11/06 11:42:28;;;;;;;0.88;0.70;;;;;;;19.14;52.60;100661.94;5047087;28;20090;-47
2022/11/06 11:45:08;;;;;;;2.05;0.80;;;;;;;19.13;52.81;100655.81;5045581;28;21274;-47
2022/11/06 11:47:35;;;;;;;2.22;0.80;;;;;;;19.14;52.43;100652.25;5045026;28;20789;-47
2022/11/06 11:50:25;;;;;;;2.28;0.93;;;;;;;19.16;52.62;100645.09;5044266;28;20128;-47
2022/11/06 11:53:02;;;;;;;2.03;0.90;;;;;;;19.16;52.68;100633.75;5053707;28;20406;-47
2022/11/06 11:55:29;;;;;;;1.35;0.80;;;;;;;19.15;52.75;100627.63;5047147;28;20888;-47